Time;durP1;ratioP1;P1;durP2;ratioP2;P2;SDS_P1;SDS_P2;PMS_P1;PMS_P2;Temp;Humidity;BMP_temperature;BMP_pressure;BME280_temperature;BME280_humidity;BME280_pressure;Samples;Min_cycle;Max_cycle;Signal;HPM_P1;HPM_P2
2021/03/21 00:04:24;;;;;;;10.32;4.95;;;5.20;51.90;;;;;;10419771;28;20553;-83
2021/03/21 00:09:25;;;;;;;9.93;5.93;;;5.10;51.70;;;;;;10403068;28;20046;-83
2021/03/21 00:14:30;;;;;;;7.28;3.53;;;5.10;52.50;;;;;;10441603;28;20523;-83
2021/03/21 00:19:32;;;;;;;9.57;4.60;;;5.20;52.20;;;;;;10441473;28;20126;-83
2021/03/21 00:24:33;;;;;;;8.50;5.60;;;5.20;52.30;;;;;;10432433;28;20137;-83
2021/03/21 00:29:42;;;;;;;7.22;3.83;;;5.10;52.40;;;;;;10438424;28;20061;-84
2021/03/21 00:34:43;;;;;;;11.93;5.40;;;5.10;52.60;;;;;;10422605;28;20041;-83
2021/03/21 00:39:45;;;;;;;15.23;8.13;;;5.10;53.80;;;;;;10414136;28;20391;-83
2021/03/21 00:44:47;;;;;;;11.02;6.45;;;5.10;53.20;;;;;;10445282;28;20088;-83
2021/03/21 00:49:48;;;;;;;11.32;6.80;;;5.10;53.00;;;;;;10445514;28;20662;-84
2021/03/21 00:54:50;;;;;;;10.63;6.72;;;5.00;53.50;;;;;;10440576;28;20064;-83
2021/03/21 01:00:07;;;;;;;15.15;8.70;;;5.20;54.30;;;;;;10440736;28;20099;-83
2021/03/21 01:05:22;;;;;;;7.90;4.75;;;5.10;53.80;;;;;;10446071;28;20080;-83
2021/03/21 01:10:30;;;;;;;9.23;5.32;;;5.00;53.80;;;;;;10443424;28;20049;-83
2021/03/21 01:15:31;;;;;;;7.28;4.80;;;5.00;54.10;;;;;;10438926;28;20140;-84
2021/03/21 01:20:34;;;;;;;9.73;5.60;;;4.90;53.90;;;;;;10417725;28;20061;-84
2021/03/21 01:25:35;;;;;;;9.00;5.25;;;4.90;54.40;;;;;;10427275;28;20109;-83
2021/03/21 01:30:37;;;;;;;9.77;6.55;;;4.80;54.50;;;;;;10452568;28;20144;-84
2021/03/21 01:35:38;;;;;;;11.32;7.22;;;4.80;55.00;;;;;;10440251;28;20664;-83
2021/03/21 01:41:00;;;;;;;9.60;6.60;;;4.80;55.20;;;;;;10442791;28;20080;-83
2021/03/21 01:46:02;;;;;;;14.70;10.32;;;4.80;55.70;;;;;;10444288;28;20076;-83
2021/03/21 01:51:31;;;;;;;20.77;14.75;;;4.80;56.10;;;;;;10429074;28;20084;-83
2021/03/21 01:56:34;;;;;;;19.10;13.05;;;4.80;56.50;;;;;;10427201;28;20137;-83
2021/03/21 02:01:36;;;;;;;13.18;7.18;;;4.80;56.60;;;;;;10428188;28;20053;-84
2021/03/21 02:06:45;;;;;;;12.05;7.93;;;4.90;57.00;;;;;;10440975;28;20112;-84
2021/03/21 02:11:59;;;;;;;15.25;12.90;;;5.00;57.70;;;;;;10429134;28;20151;-84
2021/03/21 02:17:15;;;;;;;13.70;10.05;;;4.90;57.70;;;;;;10446760;28;20111;-85
2021/03/21 02:22:28;;;;;;;15.60;11.65;;;4.90;58.70;;;;;;10454856;28;20544;-84
2021/03/21 02:27:52;;;;;;;13.55;8.77;;;4.90;59.20;;;;;;10429706;28;20673;-84
2021/03/21 02:33:17;;;;;;;17.88;11.82;;;4.90;59.80;;;;;;10426432;28;20433;-84
2021/03/21 02:38:34;;;;;;;22.15;15.15;;;4.90;61.30;;;;;;10433267;28;20041;-84
2021/03/21 02:43:52;;;;;;;24.33;16.00;;;4.90;62.60;;;;;;10442877;28;20048;-84
2021/03/21 02:49:11;;;;;;;15.80;12.73;;;4.80;64.60;;;;;;10424181;28;20123;-85
2021/03/21 02:54:26;;;;;;;16.52;12.45;;;4.70;66.90;;;;;;10439361;28;20099;-86
2021/03/21 02:59:32;;;;;;;14.65;12.52;;;4.80;70.70;;;;;;10456198;28;20076;-86
2021/03/21 03:04:56;;;;;;;14.32;11.95;;;4.70;72.80;;;;;;10433391;28;20107;-85
2021/03/21 03:10:05;;;;;;;17.20;13.02;;;4.60;75.60;;;;;;10403552;28;20096;-84
2021/03/21 03:15:09;;;;;;;18.75;14.82;;;4.60;78.80;;;;;;10443937;28;20057;-84
2021/03/21 03:20:26;;;;;;;17.63;14.75;;;4.60;82.70;;;;;;10461479;28;20364;-85
2021/03/21 03:25:48;;;;;;;19.45;16.20;;;4.60;92.10;;;;;;10438178;28;20539;-84
2021/03/21 03:31:22;;;;;;;25.73;20.83;;;4.60;96.60;;;;;;10400871;28;20103;-84
2021/03/21 03:36:23;;;;;;;27.30;21.80;;;4.60;99.90;;;;;;10419262;28;20503;-84
2021/03/21 03:41:33;;;;;;;27.75;23.88;;;4.50;99.90;;;;;;10418782;28;20475;-84
2021/03/21 03:46:39;;;;;;;29.85;25.10;;;4.50;99.90;;;;;;10401367;28;20057;-84
2021/03/21 03:52:04;;;;;;;33.28;26.70;;;4.50;99.90;;;;;;10459661;28;20049;-84
2021/03/21 03:57:24;;;;;;;32.67;27.90;;;4.50;99.90;;;;;;10460182;28;20045;-84
2021/03/21 04:02:58;;;;;;;32.15;27.35;;;4.50;99.90;;;;;;10454921;28;20068;-84
2021/03/21 04:08:31;;;;;;;34.17;29.17;;;4.40;99.90;;;;;;10414744;28;20081;-85
2021/03/21 04:13:42;;;;;;;33.75;27.92;;;4.40;99.90;;;;;;10412035;28;20115;-84
2021/03/21 04:18:55;;;;;;;31.50;27.25;;;4.40;99.90;;;;;;10450838;28;20168;-84
2021/03/21 04:24:11;;;;;;;32.58;27.65;;;4.20;99.90;;;;;;10453339;28;20081;-85
2021/03/21 04:29:24;;;;;;;30.50;26.35;;;4.10;99.90;;;;;;10452615;28;20052;-84
2021/03/21 04:34:27;;;;;;;29.75;25.77;;;4.10;99.90;;;;;;10452960;28;20052;-84
2021/03/21 04:39:32;;;;;;;29.85;24.75;;;4.20;99.90;;;;;;10451601;28;20057;-85
2021/03/21 04:44:49;;;;;;;28.23;24.20;;;4.20;99.90;;;;;;10452471;28;20073;-85
2021/03/21 04:49:53;;;;;;;30.27;25.15;;;4.20;99.90;;;;;;10451349;28;20076;-84
2021/03/21 04:54:56;;;;;;;31.58;26.30;;;4.20;99.90;;;;;;10434477;28;20099;-84
2021/03/21 04:59:58;;;;;;;33.20;27.38;;;4.20;99.90;;;;;;10451117;28;20053;-84
2021/03/21 05:05:10;;;;;;;31.73;27.00;;;4.30;99.90;;;;;;10450721;28;20114;-84
2021/03/21 05:10:30;;;;;;;33.42;27.10;;;4.20;99.90;;;;;;10450674;28;20049;-84
2021/03/21 05:15:41;;;;;;;33.05;25.42;;;3.90;99.90;;;;;;10450502;28;20060;-84
2021/03/21 05:21:05;;;;;;;30.48;24.95;;;3.90;99.90;;;;;;10450357;28;20049;-85
2021/03/21 05:26:12;;;;;;;27.92;23.33;;;4.00;99.90;;;;;;10451306;28;20049;-84
2021/03/21 05:31:15;;;;;;;22.90;20.02;;;4.20;99.90;;;;;;10450658;28;20053;-85
2021/03/21 05:36:42;;;;;;;24.90;21.73;;;4.20;99.90;;;;;;10451197;28;20045;-84
2021/03/21 05:42:18;;;;;;;23.42;19.05;;;4.20;99.90;;;;;;10451384;28;20102;-85
2021/03/21 05:47:25;;;;;;;18.55;16.15;;;4.20;99.90;;;;;;10450554;28;20088;-84
2021/03/21 05:52:48;;;;;;;18.17;16.10;;;4.40;99.90;;;;;;10449596;28;20457;-85
2021/03/21 05:57:52;;;;;;;17.67;15.65;;;4.40;99.90;;;;;;10450602;28;20057;-85
2021/03/21 06:03:15;;;;;;;17.58;15.40;;;4.40;99.90;;;;;;10450127;28;20061;-85
2021/03/21 06:08:56;;;;;;;14.18;12.63;;;4.50;99.90;;;;;;10449803;28;20056;-85
2021/03/21 06:14:18;;;;;;;12.07;10.75;;;4.50;99.90;;;;;;10401482;28;20103;-84
2021/03/21 06:19:31;;;;;;;13.98;11.73;;;4.50;99.90;;;;;;10415161;28;20077;-85
2021/03/21 06:24:45;;;;;;;14.38;11.70;;;4.40;99.90;;;;;;10449445;28;20091;-85
2021/03/21 06:30:08;;;;;;;15.95;13.02;;;4.40;99.90;;;;;;10432054;28;20053;-85
2021/03/21 06:35:16;;;;;;;16.35;12.50;;;4.40;99.90;;;;;;10448875;28;20056;-85
2021/03/21 06:40:24;;;;;;;14.38;11.70;;;4.40;99.90;;;;;;10455727;28;20049;-85
2021/03/21 06:45:49;;;;;;;17.13;13.05;;;4.40;99.90;;;;;;10449262;28;20085;-85
2021/03/21 06:51:10;;;;;;;16.10;12.93;;;4.40;99.90;;;;;;10449169;28;20124;-85
2021/03/21 06:56:30;;;;;;;15.77;12.60;;;4.50;99.90;;;;;;10449158;28;20041;-85
2021/03/21 07:02:09;;;;;;;16.50;12.48;;;4.50;99.90;;;;;;10447555;28;20139;-85
2021/03/21 07:07:38;;;;;;;16.40;12.20;;;4.50;99.90;;;;;;10454338;28;20071;-85
2021/03/21 07:12:56;;;;;;;15.88;13.23;;;4.70;99.90;;;;;;10455568;28;20080;-85
2021/03/21 07:18:16;;;;;;;16.10;13.27;;;4.70;99.90;;;;;;10437715;28;20136;-85
2021/03/21 07:23:42;;;;;;;14.18;11.57;;;4.70;99.90;;;;;;10454863;28;20592;-85
2021/03/21 07:29:03;;;;;;;14.93;12.07;;;4.70;99.90;;;;;;10440597;28;20083;-85
2021/03/21 07:34:15;;;;;;;15.43;11.73;;;4.90;99.90;;;;;;10455084;28;20105;-85
2021/03/21 07:39:32;;;;;;;15.10;12.13;;;5.00;99.90;;;;;;10454280;28;20095;-85
2021/03/21 07:44:59;;;;;;;18.73;14.15;;;5.10;99.90;;;;;;10454203;28;20049;-85
2021/03/21 07:50:16;;;;;;;19.50;14.40;;;5.00;99.90;;;;;;10436287;28;20159;-84
2021/03/21 07:55:42;;;;;;;21.25;16.45;;;5.10;99.90;;;;;;10436019;28;20057;-85
2021/03/21 08:00:44;;;;;;;13.90;11.45;;;5.20;99.90;;;;;;10453830;28;20083;-85
2021/03/21 08:05:49;;;;;;;16.85;12.57;;;5.30;99.90;;;;;;10454340;28;20564;-85
2021/03/21 08:10:56;;;;;;;14.50;11.38;;;5.40;99.90;;;;;;10455001;28;20076;-85
2021/03/21 08:15:59;;;;;;;11.52;8.93;;;5.50;99.90;;;;;;10453568;28;20449;-85
2021/03/21 08:21:33;;;;;;;12.88;10.40;;;5.50;99.90;;;;;;10422825;28;20700;-86
2021/03/21 08:26:35;;;;;;;11.23;8.45;;;5.70;99.90;;;;;;10433214;28;20140;-86
2021/03/21 08:31:39;;;;;;;10.93;9.38;;;5.80;99.90;;;;;;10450789;28;20103;-86
2021/03/21 08:36:41;;;;;;;10.00;8.18;;;6.00;99.90;;;;;;10451387;28;20131;-86
2021/03/21 08:41:52;;;;;;;8.43;7.00;;;6.30;99.90;;;;;;10448449;28;20128;-86
2021/03/21 08:46:54;;;;;;;8.18;7.32;;;6.30;99.90;;;;;;10450799;28;20052;-86
2021/03/21 08:51:56;;;;;;;8.70;7.30;;;6.20;99.90;;;;;;10449915;28;20099;-86
2021/03/21 08:57:13;;;;;;;14.50;11.15;;;6.30;99.90;;;;;;10450026;28;20057;-81
2021/03/21 09:02:18;;;;;;;8.57;7.10;;;6.40;99.90;;;;;;10447268;28;20059;-81
2021/03/21 09:07:22;;;;;;;8.75;7.32;;;6.30;99.90;;;;;;10447762;28;20057;-81
2021/03/21 09:12:23;;;;;;;7.97;6.95;;;6.30;99.90;;;;;;10446778;28;20132;-81
2021/03/21 09:17:26;;;;;;;10.65;7.85;;;6.30;99.90;;;;;;10475438;28;20060;-81
2021/03/21 09:22:30;;;;;;;8.32;7.32;;;6.30;99.90;;;;;;10488573;28;20431;-81
2021/03/21 09:27:35;;;;;;;9.10;7.32;;;6.80;99.90;;;;;;10460506;28;20111;-81
2021/03/21 09:32:38;;;;;;;8.30;7.00;;;7.50;99.90;;;;;;10446798;28;20049;-81
2021/03/21 09:37:41;;;;;;;10.45;7.88;;;8.00;99.90;;;;;;10479660;28;20048;-81
2021/03/21 09:42:47;;;;;;;8.38;6.70;;;8.80;99.90;;;;;;10448554;28;20111;-81
2021/03/21 09:48:01;;;;;;;7.68;5.75;;;8.90;99.90;;;;;;10448055;28;20048;-81
2021/03/21 09:53:30;;;;;;;8.00;5.88;;;8.80;99.90;;;;;;10446790;28;20053;-81
2021/03/21 09:58:47;;;;;;;7.22;5.50;;;8.70;99.90;;;;;;10445136;28;20053;-81
2021/03/21 10:04:05;;;;;;;7.35;5.15;;;8.50;99.90;;;;;;10446109;28;20115;-81
2021/03/21 10:09:17;;;;;;;7.85;5.00;;;8.80;99.90;;;;;;10445902;28;20048;-81
2021/03/21 10:14:24;;;;;;;5.63;4.53;;;9.30;99.90;;;;;;10479933;28;20052;-81
2021/03/21 10:19:47;;;;;;;5.35;4.43;;;9.20;99.90;;;;;;10447150;28;20111;-81
2021/03/21 10:25:00;;;;;;;7.15;4.70;;;8.90;99.90;;;;;;10428873;28;20128;-80
2021/03/21 10:30:07;;;;;;;7.03;4.72;;;9.10;99.90;;;;;;10410174;28;20056;-81
2021/03/21 10:35:32;;;;;;;8.70;4.78;;;9.10;99.90;;;;;;10444249;28;20080;-81
2021/03/21 10:40:34;;;;;;;7.43;5.50;;;8.90;99.90;;;;;;10477740;28;20085;-81
2021/03/21 10:45:36;;;;;;;7.20;5.22;;;8.80;99.90;;;;;;10452128;28;20774;-80
2021/03/21 10:50:59;;;;;;;6.75;5.47;;;9.10;99.90;;;;;;10487292;28;20110;-80
2021/03/21 10:56:11;;;;;;;6.18;4.82;;;8.90;99.90;;;;;;10452929;28;20053;-80
2021/03/21 11:06:22;;;;;;;4.88;3.75;;;8.20;99.90;;;;;;10452778;28;20053;-80
2021/03/21 11:11:40;;;;;;;7.85;4.60;;;8.10;99.90;;;;;;10451874;28;20056;-80
2021/03/21 11:16:54;;;;;;;5.22;4.07;;;8.50;99.90;;;;;;10429264;28;20107;-80
2021/03/21 11:22:32;;;;;;;5.28;3.72;;;8.80;99.90;;;;;;10410285;28;20064;-80
2021/03/21 11:27:36;;;;;;;5.28;3.50;;;9.10;99.90;;;;;;10383437;28;20077;-80
2021/03/21 11:32:38;;;;;;;4.97;3.03;;;9.20;99.00;;;;;;10369269;28;20470;-80
2021/03/21 11:37:43;;;;;;;6.05;3.35;;;9.00;98.40;;;;;;10368746;28;20057;-80
2021/03/21 11:43:03;;;;;;;4.90;3.00;;;8.80;98.10;;;;;;10368710;28;20054;-80
2021/03/21 11:48:08;;;;;;;4.97;2.63;;;9.00;95.50;;;;;;10349611;28;20154;-80
2021/03/21 11:53:20;;;;;;;7.38;3.00;;;8.50;94.00;;;;;;10350077;28;20073;-80
2021/03/21 11:58:51;;;;;;;4.95;2.58;;;8.70;93.70;;;;;;10367351;28;20070;-80
2021/03/21 12:03:59;;;;;;;5.93;2.78;;;9.10;93.90;;;;;;10351554;28;20061;-80
2021/03/21 12:09:30;;;;;;;5.97;2.75;;;9.60;87.60;;;;;;10367658;28;20053;-80
2021/03/21 12:14:31;;;;;;;6.38;3.40;;;9.80;86.30;;;;;;10367181;28;20057;-80
2021/03/21 12:19:35;;;;;;;8.38;3.25;;;9.70;80.70;;;;;;10367492;28;20042;-80
2021/03/21 12:24:37;;;;;;;8.10;3.13;;;9.50;78.60;;;;;;10369472;28;20045;-80
2021/03/21 12:29:44;;;;;;;10.25;3.08;;;9.50;80.00;;;;;;10407756;28;20049;-80
2021/03/21 12:34:51;;;;;;;8.48;2.90;;;9.20;81.90;;;;;;10407654;28;20112;-80
2021/03/21 12:40:19;;;;;;;13.50;3.10;;;9.30;81.50;;;;;;10407825;28;20046;-80
2021/03/21 12:45:27;;;;;;;11.57;2.53;;;9.50;73.90;;;;;;10406879;28;20503;-80
2021/03/21 12:50:43;;;;;;;11.40;2.67;;;9.60;70.20;;;;;;10407311;28;20081;-80
2021/03/21 12:55:44;;;;;;;10.88;2.90;;;9.50;68.90;;;;;;10389418;28;20045;-80
2021/03/21 13:00:47;;;;;;;8.18;2.45;;;9.70;69.70;;;;;;10407211;28;20561;-80
2021/03/21 13:11:51;;;;;;;12.70;3.78;;;9.70;67.30;;;;;;10405864;28;20045;-80
2021/03/21 13:16:52;;;;;;;9.80;3.28;;;9.70;68.30;;;;;;10430192;28;20438;-80
2021/03/21 13:21:54;;;;;;;11.00;3.40;;;9.60;68.10;;;;;;10447798;28;20103;-80
2021/03/21 13:26:57;;;;;;;18.10;4.20;;;9.60;69.00;;;;;;10448057;28;20674;-79
2021/03/21 13:31:58;;;;;;;11.20;4.00;;;9.70;69.50;;;;;;10430530;28;20072;-79
2021/03/21 13:37:02;;;;;;;18.42;4.47;;;9.70;69.70;;;;;;10448460;28;20081;-80
2021/03/21 13:42:05;;;;;;;14.98;4.15;;;9.60;69.70;;;;;;10449348;28;20052;-80
2021/03/21 13:47:07;;;;;;;13.93;4.00;;;9.70;71.60;;;;;;10447059;28;20491;-80
2021/03/21 13:52:09;;;;;;;13.23;3.90;;;9.50;72.40;;;;;;10447438;28;20049;-80
2021/03/21 13:57:11;;;;;;;14.82;4.03;;;9.00;71.20;;;;;;10430097;28;20107;-80
2021/03/21 14:02:12;;;;;;;15.10;4.28;;;9.30;69.50;;;;;;10446378;28;20057;-80
2021/03/21 14:07:14;;;;;;;15.88;4.28;;;9.50;66.80;;;;;;10428533;28;20506;-79
2021/03/21 14:12:15;;;;;;;14.80;4.10;;;9.50;69.40;;;;;;10425313;28;20069;-78
2021/03/21 14:17:17;;;;;;;17.77;3.78;;;9.70;64.40;;;;;;10427635;28;20053;-77
2021/03/21 14:22:18;;;;;;;15.32;3.95;;;9.30;62.10;;;;;;10452256;28;20041;-77
2021/03/21 14:27:20;;;;;;;15.98;3.92;;;9.20;62.40;;;;;;10449935;28;20080;-77
2021/03/21 14:32:21;;;;;;;15.20;4.18;;;9.50;62.10;;;;;;10464068;28;20123;-77
2021/03/21 14:37:23;;;;;;;19.08;4.70;;;9.80;61.60;;;;;;10443821;28;20045;-77
2021/03/21 14:42:25;;;;;;;22.02;4.78;;;9.80;61.50;;;;;;10431436;28;20075;-77
2021/03/21 14:47:27;;;;;;;18.33;5.00;;;9.60;60.00;;;;;;10449590;28;20457;-77
2021/03/21 14:52:28;;;;;;;17.13;4.43;;;9.60;61.80;;;;;;10449524;28;20301;-77
2021/03/21 14:57:30;;;;;;;19.77;4.70;;;9.40;61.30;;;;;;10453898;28;20083;-77
2021/03/21 15:02:31;;;;;;;22.02;4.72;;;9.30;61.30;;;;;;10451499;28;20092;-77
2021/03/21 15:07:33;;;;;;;19.20;4.90;;;9.10;62.10;;;;;;10448627;28;20057;-77
2021/03/21 15:12:36;;;;;;;23.38;5.13;;;9.10;62.60;;;;;;10434024;28;20061;-77
2021/03/21 15:17:39;;;;;;;19.08;4.97;;;9.00;63.30;;;;;;10450007;28;20136;-77
2021/03/21 15:22:41;;;;;;;24.85;5.90;;;9.10;64.60;;;;;;10452816;28;20511;-77
2021/03/21 15:27:43;;;;;;;17.90;5.30;;;8.70;67.50;;;;;;10433284;28;20045;-77
2021/03/21 15:32:45;;;;;;;21.40;5.82;;;8.60;70.00;;;;;;10452826;28;20128;-77
2021/03/21 15:37:47;;;;;;;27.65;6.65;;;8.60;72.20;;;;;;10451889;28;20045;-77
2021/03/21 15:42:53;;;;;;;19.73;5.53;;;9.00;72.40;;;;;;10450700;28;20061;-77
2021/03/21 15:47:54;;;;;;;20.90;5.90;;;9.10;71.40;;;;;;10452079;28;20084;-77
2021/03/21 15:52:59;;;;;;;23.27;5.13;;;8.90;69.80;;;;;;10450648;28;20083;-77
2021/03/21 15:58:00;;;;;;;22.58;5.38;;;8.80;69.10;;;;;;10424934;28;20415;-77
2021/03/21 16:03:05;;;;;;;21.70;5.43;;;8.60;66.70;;;;;;10450670;28;20072;-77
2021/03/21 16:08:11;;;;;;;31.88;5.95;;;8.30;67.80;;;;;;10450927;28;20049;-77
2021/03/21 16:13:14;;;;;;;18.65;5.43;;;8.30;69.10;;;;;;10450923;28;20089;-77
2021/03/21 16:18:16;;;;;;;28.58;5.63;;;8.30;68.90;;;;;;10449542;28;20406;-77
2021/03/21 16:23:18;;;;;;;23.65;5.50;;;8.00;70.00;;;;;;10450477;28;20063;-77
2021/03/21 16:28:21;;;;;;;29.02;6.07;;;8.00;70.90;;;;;;10450137;28;20514;-77
2021/03/21 16:33:26;;;;;;;25.60;6.47;;;8.00;71.80;;;;;;10449068;28;20438;-77
2021/03/21 16:38:28;;;;;;;25.05;6.10;;;8.00;73.00;;;;;;10431692;28;20061;-77
2021/03/21 16:43:33;;;;;;;25.05;6.05;;;7.80;73.70;;;;;;10449296;28;20087;-77
2021/03/21 16:48:35;;;;;;;26.40;5.70;;;7.60;73.90;;;;;;10432112;28;20056;-77
2021/03/21 16:53:37;;;;;;;25.40;6.30;;;7.50;74.50;;;;;;10448674;28;20041;-77
2021/03/21 16:58:39;;;;;;;26.65;6.72;;;7.40;75.40;;;;;;10448419;28;20049;-77
2021/03/21 17:03:41;;;;;;;29.23;6.35;;;7.40;77.40;;;;;;10447430;28;20953;-78
2021/03/21 17:08:42;;;;;;;26.58;5.63;;;7.10;79.00;;;;;;10442252;28;21562;-78
2021/03/21 17:13:44;;;;;;;22.50;5.53;;;7.00;80.20;;;;;;10456018;28;20053;-76
2021/03/21 17:18:45;;;;;;;25.10;6.38;;;7.10;81.40;;;;;;10447749;28;20566;-76
2021/03/21 17:23:47;;;;;;;29.58;7.50;;;7.10;82.10;;;;;;10449237;28;20076;-77
2021/03/21 17:28:49;;;;;;;31.30;6.60;;;6.80;83.50;;;;;;10448001;28;20084;-77
2021/03/21 17:33:50;;;;;;;25.90;6.75;;;6.70;85.60;;;;;;10440882;28;20088;-77
2021/03/21 17:38:52;;;;;;;32.08;6.70;;;6.60;88.00;;;;;;10433687;28;20159;-77
2021/03/21 17:43:53;;;;;;;29.13;6.93;;;6.40;89.40;;;;;;10426807;28;20108;-77
2021/03/21 17:48:55;;;;;;;25.38;7.03;;;6.40;90.20;;;;;;10437162;28;20502;-77
2021/03/21 17:53:56;;;;;;;28.63;9.05;;;6.20;91.00;;;;;;10418993;28;20124;-77
2021/03/21 17:59:02;;;;;;;23.35;7.25;;;6.20;91.40;;;;;;10446607;28;20099;-77
2021/03/21 18:04:04;;;;;;;51.92;16.70;;;6.10;92.80;;;;;;10453875;28;20077;-77
2021/03/21 18:09:06;;;;;;;40.72;15.18;;;6.00;93.00;;;;;;10444409;28;20073;-77
2021/03/21 18:14:08;;;;;;;39.70;12.82;;;6.00;93.80;;;;;;10402536;28;20045;-77
2021/03/21 18:19:09;;;;;;;30.92;8.32;;;6.00;94.40;;;;;;10423380;28;20589;-77
2021/03/21 18:24:11;;;;;;;29.88;7.22;;;5.90;95.20;;;;;;10409095;28;20053;-77
2021/03/21 18:29:15;;;;;;;27.05;6.90;;;6.00;96.00;;;;;;10435347;28;20568;-77
2021/03/21 18:34:16;;;;;;;26.45;6.78;;;5.90;96.10;;;;;;10428638;28;20042;-76
2021/03/21 18:39:20;;;;;;;36.60;7.15;;;5.90;96.60;;;;;;10427998;28;20132;-76
2021/03/21 18:44:21;;;;;;;37.75;8.00;;;5.70;97.50;;;;;;10406582;28;20095;-76
2021/03/21 18:49:23;;;;;;;28.08;6.68;;;5.70;98.50;;;;;;10410250;28;20079;-76
2021/03/21 18:54:29;;;;;;;27.17;7.07;;;5.70;99.10;;;;;;10427253;28;20073;-76
2021/03/21 18:59:31;;;;;;;34.83;6.82;;;5.60;99.90;;;;;;10424667;28;20518;-76
2021/03/21 19:04:33;;;;;;;27.58;6.80;;;5.50;99.90;;;;;;10416146;28;20146;-77
2021/03/21 19:09:34;;;;;;;30.60;6.63;;;5.50;99.90;;;;;;10419778;28;20508;-76
2021/03/21 19:14:41;;;;;;;32.53;6.53;;;5.30;99.90;;;;;;10398183;28;20156;-76
2021/03/21 19:19:43;;;;;;;27.02;6.60;;;5.30;99.90;;;;;;10452989;28;20549;-76
2021/03/21 19:24:45;;;;;;;33.90;7.75;;;5.30;99.90;;;;;;10434927;28;20544;-76
2021/03/21 19:29:47;;;;;;;30.13;6.70;;;5.30;99.90;;;;;;10452428;28;20056;-77
2021/03/21 19:34:49;;;;;;;29.52;6.40;;;5.30;99.90;;;;;;10421262;28;20133;-76
2021/03/21 19:39:52;;;;;;;31.90;6.53;;;5.30;99.90;;;;;;10428183;28;20061;-76
2021/03/21 19:44:53;;;;;;;33.78;6.78;;;5.20;99.90;;;;;;10452253;28;20115;-76
2021/03/21 19:49:54;;;;;;;32.92;6.88;;;5.20;99.90;;;;;;10451457;28;20083;-76
2021/03/21 19:54:56;;;;;;;28.98;5.90;;;5.10;99.90;;;;;;10449566;28;20080;-76
2021/03/21 19:59:57;;;;;;;29.23;6.00;;;5.00;99.90;;;;;;10432936;28;20048;-77
2021/03/21 20:04:59;;;;;;;24.33;6.35;;;4.90;99.90;;;;;;10450287;28;20076;-76
2021/03/21 20:10:02;;;;;;;30.10;5.97;;;4.90;99.90;;;;;;10449806;28;20133;-76
2021/03/21 20:15:04;;;;;;;29.38;6.43;;;4.80;99.90;;;;;;10421235;28;20106;-76
2021/03/21 20:20:09;;;;;;;29.45;6.07;;;4.80;99.90;;;;;;10448648;28;20124;-76
2021/03/21 20:25:12;;;;;;;25.70;5.90;;;4.70;99.90;;;;;;10408358;28;20121;-76
2021/03/21 20:30:15;;;;;;;32.90;6.47;;;4.70;99.90;;;;;;10426668;28;20107;-75
2021/03/21 20:35:19;;;;;;;25.55;5.60;;;4.70;99.90;;;;;;10424326;28;20103;-76
2021/03/21 20:40:22;;;;;;;28.42;5.70;;;4.60;99.90;;;;;;10401918;28;20085;-76
2021/03/21 20:45:27;;;;;;;31.13;6.30;;;4.60;99.90;;;;;;10446818;28;20080;-75
2021/03/21 20:50:30;;;;;;;31.98;6.68;;;4.50;99.90;;;;;;10448403;28;20060;-76
2021/03/21 20:55:33;;;;;;;27.83;6.50;;;4.40;99.90;;;;;;10447212;28;20460;-76
2021/03/21 21:00:41;;;;;;;28.95;6.72;;;4.40;99.90;;;;;;10407892;28;20132;-76
2021/03/21 21:05:44;;;;;;;30.88;6.97;;;4.40;99.90;;;;;;10428451;28;20057;-76
2021/03/21 21:10:46;;;;;;;28.33;6.40;;;4.30;99.90;;;;;;10410289;28;20103;-76
2021/03/21 21:15:48;;;;;;;33.65;7.72;;;4.20;99.90;;;;;;10402764;28;20053;-76
2021/03/21 21:20:53;;;;;;;42.60;6.75;;;4.10;99.90;;;;;;10406508;28;20056;-76
2021/03/21 21:25:55;;;;;;;35.78;7.32;;;4.20;99.90;;;;;;10359705;28;20046;-76
2021/03/21 21:30:57;;;;;;;25.10;6.80;;;4.20;99.90;;;;;;10388636;28;20506;-76
2021/03/21 21:35:58;;;;;;;30.58;6.30;;;4.10;99.90;;;;;;10399107;28;20124;-76
2021/03/21 21:41:00;;;;;;;31.27;6.28;;;4.00;99.90;;;;;;10405308;28;20092;-76
2021/03/21 21:46:12;;;;;;;35.92;5.70;;;4.00;99.90;;;;;;10400881;28;20041;-76
2021/03/21 21:51:14;;;;;;;36.72;6.18;;;4.00;99.90;;;;;;10380655;28;20435;-76
2021/03/21 21:56:16;;;;;;;23.35;5.18;;;3.90;99.90;;;;;;10405694;28;20049;-76
2021/03/21 22:01:17;;;;;;;29.30;5.80;;;3.90;99.90;;;;;;10404362;28;20050;-76
2021/03/21 22:06:19;;;;;;;22.63;4.68;;;3.90;99.90;;;;;;10398445;28;20495;-75
2021/03/21 22:11:20;;;;;;;25.98;4.97;;;3.90;99.90;;;;;;10386330;28;20127;-76
2021/03/21 22:16:38;;;;;;;24.80;4.80;;;3.80;99.90;;;;;;10404790;28;20686;-76
2021/03/21 22:21:40;;;;;;;28.05;4.90;;;3.90;99.90;;;;;;10412937;28;20391;-76
2021/03/21 22:26:42;;;;;;;25.42;5.53;;;3.80;99.90;;;;;;10401626;28;20057;-76
2021/03/21 22:31:43;;;;;;;26.42;5.70;;;3.80;99.90;;;;;;10404718;28;20057;-76
2021/03/21 22:36:45;;;;;;;28.45;5.15;;;3.70;99.90;;;;;;10410367;28;20065;-76
2021/03/21 22:41:47;;;;;;;29.02;5.13;;;3.70;99.90;;;;;;10412580;28;20132;-76
2021/03/21 22:46:52;;;;;;;25.33;5.65;;;3.70;99.90;;;;;;10412646;28;20041;-76
2021/03/21 22:51:54;;;;;;;27.17;4.88;;;3.60;99.90;;;;;;10412129;28;20418;-76
2021/03/21 22:56:55;;;;;;;29.17;5.40;;;3.50;99.90;;;;;;10412093;28;20088;-82
2021/03/21 23:01:57;;;;;;;26.55;4.85;;;3.50;99.90;;;;;;10411347;28;20076;-81
2021/03/21 23:06:59;;;;;;;26.80;5.07;;;3.40;99.90;;;;;;10411726;28;20053;-76
2021/03/21 23:12:01;;;;;;;29.92;5.03;;;3.50;99.90;;;;;;10411520;28;20053;-76
2021/03/21 23:17:17;;;;;;;26.35;5.45;;;3.50;99.90;;;;;;10410756;28;20073;-76
2021/03/21 23:22:19;;;;;;;30.73;6.18;;;3.40;99.90;;;;;;10410707;28;20049;-76
2021/03/21 23:27:21;;;;;;;27.85;5.15;;;3.40;99.90;;;;;;10410789;28;20077;-76
2021/03/21 23:32:22;;;;;;;24.45;4.65;;;3.40;99.90;;;;;;10409956;28;20045;-76
2021/03/21 23:37:24;;;;;;;34.17;6.28;;;3.40;99.90;;;;;;10410163;28;20103;-76
2021/03/21 23:42:25;;;;;;;28.70;5.85;;;3.40;99.90;;;;;;10410334;28;20053;-76
2021/03/21 23:47:47;;;;;;;30.05;5.57;;;3.50;99.90;;;;;;10408748;28;20102;-76
2021/03/21 23:52:49;;;;;;;28.23;4.95;;;3.40;99.90;;;;;;10391969;28;20133;-76
2021/03/21 23:57:51;;;;;;;30.10;5.80;;;3.30;99.90;;;;;;10409427;28;20115;-76
